sensor_id;sensor_type;location;lat;lon;timestamp;pressure;altitude;pressure_sealevel;temperature;humidity
69689;BME280;56932;38.402;-96.176;2022-09-01T00:00:16;97718.83;;;24.58;30.50
69689;BME280;56932;38.402;-96.176;2022-09-01T00:02:40;97718.00;;;24.64;30.32
69689;BME280;56932;38.402;-96.176;2022-09-01T00:05:07;97718.47;;;24.02;29.96
69689;BME280;56932;38.402;-96.176;2022-09-01T00:07:31;97722.46;;;24.04;30.68
69689;BME280;56932;38.402;-96.176;2022-09-01T00:09:57;97721.59;;;24.35;30.08
69689;BME280;56932;38.402;-96.176;2022-09-01T00:12:22;97721.03;;;24.70;29.45
69689;BME280;56932;38.402;-96.176;2022-09-01T00:14:48;97721.49;;;24.33;29.84
69689;BME280;56932;38.402;-96.176;2022-09-01T00:17:14;97724.66;;;24.27;29.89
69689;BME280;56932;38.402;-96.176;2022-09-01T00:19:39;97728.23;;;23.68;30.09
69689;BME280;56932;38.402;-96.176;2022-09-01T00:22:05;97727.75;;;23.55;29.87
69689;BME280;56932;38.402;-96.176;2022-09-01T00:24:30;97723.30;;;24.45;28.83
69689;BME280;56932;38.402;-96.176;2022-09-01T00:26:57;97723.26;;;23.83;28.70
69689;BME280;56932;38.402;-96.176;2022-09-01T00:29:21;97725.20;;;24.06;27.88
69689;BME280;56932;38.402;-96.176;2022-09-01T00:31:46;97726.93;;;23.62;28.23
69689;BME280;56932;38.402;-96.176;2022-09-01T00:34:11;97723.95;;;22.92;28.68
69689;BME280;56932;38.402;-96.176;2022-09-01T00:36:37;97724.31;;;23.07;28.23
69689;BME280;56932;38.402;-96.176;2022-09-01T00:39:04;97727.75;;;22.89;27.87
69689;BME280;56932;38.402;-96.176;2022-09-01T00:41:31;97730.28;;;23.62;27.45
69689;BME280;56932;38.402;-96.176;2022-09-01T00:43:56;97733.60;;;24.05;27.51
69689;BME280;56932;38.402;-96.176;2022-09-01T00:46:21;97737.63;;;23.55;28.34
69689;BME280;56932;38.402;-96.176;2022-09-01T00:48:45;97738.02;;;23.91;27.92
69689;BME280;56932;38.402;-96.176;2022-09-01T00:51:12;97739.07;;;23.24;28.54
69689;BME280;56932;38.402;-96.176;2022-09-01T00:53:37;97740.47;;;23.14;28.73
69689;BME280;56932;38.402;-96.176;2022-09-01T00:56:01;97744.74;;;23.38;27.78
69689;BME280;56932;38.402;-96.176;2022-09-01T00:58:26;97742.15;;;22.97;28.56
69689;BME280;56932;38.402;-96.176;2022-09-01T01:00:52;97737.86;;;22.79;28.54
69689;BME280;56932;38.402;-96.176;2022-09-01T01:03:17;97738.79;;;22.69;28.50
69689;BME280;56932;38.402;-96.176;2022-09-01T01:05:45;97744.61;;;23.14;27.89
69689;BME280;56932;38.402;-96.176;2022-09-01T01:08:08;97747.04;;;22.89;27.96
69689;BME280;56932;38.402;-96.176;2022-09-01T01:10:37;97754.53;;;23.14;27.75
69689;BME280;56932;38.402;-96.176;2022-09-01T01:13:00;97760.23;;;23.54;28.08
69689;BME280;56932;38.402;-96.176;2022-09-01T01:15:24;97764.61;;;24.09;27.79
69689;BME280;56932;38.402;-96.176;2022-09-01T01:17:50;97774.55;;;24.04;28.52
69689;BME280;56932;38.402;-96.176;2022-09-01T01:20:16;97778.50;;;24.04;28.31
69689;BME280;56932;38.402;-96.176;2022-09-01T01:22:47;97782.98;;;24.38;28.59
69689;BME280;56932;38.402;-96.176;2022-09-01T01:25:06;97782.07;;;24.41;28.94
69689;BME280;56932;38.402;-96.176;2022-09-01T01:27:33;97779.17;;;24.12;29.21
69689;BME280;56932;38.402;-96.176;2022-09-01T01:29:59;97779.47;;;24.35;29.17
69689;BME280;56932;38.402;-96.176;2022-09-01T01:32:22;97783.03;;;24.70;29.02
69689;BME280;56932;38.402;-96.176;2022-09-01T01:34:48;97786.90;;;24.67;29.25
69689;BME280;56932;38.402;-96.176;2022-09-01T01:37:13;97791.26;;;24.19;29.97
69689;BME280;56932;38.402;-96.176;2022-09-01T01:39:39;97795.41;;;24.50;29.90
69689;BME280;56932;38.402;-96.176;2022-09-01T01:42:05;97797.35;;;24.31;30.30
69689;BME280;56932;38.402;-96.176;2022-09-01T01:44:30;97797.68;;;24.04;30.76
69689;BME280;56932;38.402;-96.176;2022-09-01T01:46:55;97800.32;;;24.33;31.16
69689;BME280;56932;38.402;-96.176;2022-09-01T01:49:24;97800.37;;;23.88;31.22
69689;BME280;56932;38.402;-96.176;2022-09-01T01:51:47;97804.98;;;24.16;31.01
69689;BME280;56932;38.402;-96.176;2022-09-01T01:54:12;97807.01;;;24.14;31.22
69689;BME280;56932;38.402;-96.176;2022-09-01T01:56:37;97810.83;;;24.15;31.31
69689;BME280;56932;38.402;-96.176;2022-09-01T01:59:03;97814.41;;;24.20;31.40
69689;BME280;56932;38.402;-96.176;2022-09-01T02:01:29;97817.43;;;24.51;31.12
69689;BME280;56932;38.402;-96.176;2022-09-01T02:03:54;97820.52;;;24.52;31.22
69689;BME280;56932;38.402;-96.176;2022-09-01T02:06:21;97823.01;;;24.80;30.97
69689;BME280;56932;38.402;-96.176;2022-09-01T02:08:44;97820.67;;;24.88;30.99
69689;BME280;56932;38.402;-96.176;2022-09-01T02:11:10;97817.67;;;23.48;31.60
69689;BME280;56932;38.402;-96.176;2022-09-01T02:13:35;97817.24;;;23.32;31.20
69689;BME280;56932;38.402;-96.176;2022-09-01T02:16:03;97819.91;;;22.80;30.43
69689;BME280;56932;38.402;-96.176;2022-09-01T02:18:30;97821.98;;;23.28;29.69
69689;BME280;56932;38.402;-96.176;2022-09-01T02:20:53;97823.11;;;22.84;29.72
69689;BME280;56932;38.402;-96.176;2022-09-01T02:23:19;97822.16;;;22.41;29.67
69689;BME280;56932;38.402;-96.176;2022-09-01T02:25:45;97823.87;;;22.56;29.32
69689;BME280;56932;38.402;-96.176;2022-09-01T02:28:09;97819.97;;;22.70;28.22
69689;BME280;56932;38.402;-96.176;2022-09-01T02:30:34;97826.76;;;22.11;28.83
69689;BME280;56932;38.402;-96.176;2022-09-01T02:32:59;97827.60;;;21.92;28.78
69689;BME280;56932;38.402;-96.176;2022-09-01T02:35:25;97829.87;;;22.38;28.00
69689;BME280;56932;38.402;-96.176;2022-09-01T02:37:50;97824.86;;;22.52;28.09
69689;BME280;56932;38.402;-96.176;2022-09-01T02:40:15;97825.78;;;22.01;27.93
69689;BME280;56932;38.402;-96.176;2022-09-01T02:42:41;97823.91;;;22.33;27.56
69689;BME280;56932;38.402;-96.176;2022-09-01T02:45:08;97821.39;;;21.97;27.45
69689;BME280;56932;38.402;-96.176;2022-09-01T02:47:32;97821.06;;;21.94;27.53
69689;BME280;56932;38.402;-96.176;2022-09-01T02:49:58;97814.56;;;21.63;27.92
69689;BME280;56932;38.402;-96.176;2022-09-01T02:52:23;97812.76;;;22.33;27.37
69689;BME280;56932;38.402;-96.176;2022-09-01T02:54:48;97814.05;;;21.96;27.84
69689;BME280;56932;38.402;-96.176;2022-09-01T02:57:14;97815.17;;;21.99;27.51
69689;BME280;56932;38.402;-96.176;2022-09-01T02:59:39;97813.00;;;21.55;28.00
69689;BME280;56932;38.402;-96.176;2022-09-01T03:02:05;97811.48;;;22.19;26.97
69689;BME280;56932;38.402;-96.176;2022-09-01T03:04:31;97808.79;;;21.63;27.60
69689;BME280;56932;38.402;-96.176;2022-09-01T03:06:56;97807.53;;;21.44;27.81
69689;BME280;56932;38.402;-96.176;2022-09-01T03:09:22;97805.76;;;21.70;27.35
69689;BME280;56932;38.402;-96.176;2022-09-01T03:11:49;97803.72;;;22.03;27.24
69689;BME280;56932;38.402;-96.176;2022-09-01T03:14:12;97801.17;;;21.34;27.68
69689;BME280;56932;38.402;-96.176;2022-09-01T03:16:38;97796.94;;;21.50;27.37
69689;BME280;56932;38.402;-96.176;2022-09-01T03:19:05;97794.45;;;21.32;27.00
69689;BME280;56932;38.402;-96.176;2022-09-01T03:21:29;97789.44;;;21.48;27.31
69689;BME280;56932;38.402;-96.176;2022-09-01T03:23:54;97787.17;;;21.20;27.85
69689;BME280;56932;38.402;-96.176;2022-09-01T03:26:21;97788.36;;;21.52;27.24
69689;BME280;56932;38.402;-96.176;2022-09-01T03:28:45;97783.26;;;21.61;27.50
69689;BME280;56932;38.402;-96.176;2022-09-01T03:31:11;97781.08;;;21.71;27.20
69689;BME280;56932;38.402;-96.176;2022-09-01T03:33:36;97774.78;;;21.59;27.57
69689;BME280;56932;38.402;-96.176;2022-09-01T03:36:03;97769.03;;;21.26;28.00
69689;BME280;56932;38.402;-96.176;2022-09-01T03:38:27;97769.15;;;22.55;27.48
69689;BME280;56932;38.402;-96.176;2022-09-01T03:40:55;97767.48;;;22.38;27.91
69689;BME280;56932;38.402;-96.176;2022-09-01T03:43:19;97762.90;;;22.23;28.19
69689;BME280;56932;38.402;-96.176;2022-09-01T03:45:44;97756.85;;;22.77;28.27
69689;BME280;56932;38.402;-96.176;2022-09-01T03:48:09;97748.44;;;22.48;28.31
69689;BME280;56932;38.402;-96.176;2022-09-01T03:50:36;97746.39;;;22.44;28.65
69689;BME280;56932;38.402;-96.176;2022-09-01T03:53:00;97747.18;;;22.35;29.03
69689;BME280;56932;38.402;-96.176;2022-09-01T03:55:31;97745.12;;;22.93;29.19
69689;BME280;56932;38.402;-96.176;2022-09-01T03:57:52;97747.49;;;23.07;28.77
69689;BME280;56932;38.402;-96.176;2022-09-01T04:00:17;97739.70;;;22.46;29.64
69689;BME280;56932;38.402;-96.176;2022-09-01T04:02:42;97739.14;;;22.63;29.63
69689;BME280;56932;38.402;-96.176;2022-09-01T04:05:08;97743.55;;;22.97;29.49
69689;BME280;56932;38.402;-96.176;2022-09-01T04:07:33;97744.06;;;22.77;29.93
69689;BME280;56932;38.402;-96.176;2022-09-01T04:09:58;97746.91;;;23.20;29.63
69689;BME280;56932;38.402;-96.176;2022-09-01T04:12:24;97747.61;;;22.84;29.94
69689;BME280;56932;38.402;-96.176;2022-09-01T04:14:49;97748.37;;;23.05;30.16
69689;BME280;56932;38.402;-96.176;2022-09-01T04:17:14;97744.09;;;22.84;30.60
69689;BME280;56932;38.402;-96.176;2022-09-01T04:19:40;97745.06;;;23.23;30.30
69689;BME280;56932;38.402;-96.176;2022-09-01T04:22:06;97743.90;;;23.21;30.24
69689;BME280;56932;38.402;-96.176;2022-09-01T04:24:32;97747.57;;;23.17;30.74
69689;BME280;56932;38.402;-96.176;2022-09-01T04:26:59;97749.43;;;23.16;30.89
69689;BME280;56932;38.402;-96.176;2022-09-01T04:29:22;97749.50;;;23.37;30.81
69689;BME280;56932;38.402;-96.176;2022-09-01T04:31:47;97751.24;;;23.10;31.26
69689;BME280;56932;38.402;-96.176;2022-09-01T04:34:13;97749.36;;;23.53;30.98
69689;BME280;56932;38.402;-96.176;2022-09-01T04:36:40;97745.60;;;23.52;31.08
69689;BME280;56932;38.402;-96.176;2022-09-01T04:39:04;97741.52;;;22.99;31.27
69689;BME280;56932;38.402;-96.176;2022-09-01T04:41:31;97736.43;;;23.28;31.65
69689;BME280;56932;38.402;-96.176;2022-09-01T04:43:55;97740.54;;;23.32;31.48
69689;BME280;56932;38.402;-96.176;2022-09-01T04:46:20;97739.88;;;23.42;31.74
69689;BME280;56932;38.402;-96.176;2022-09-01T04:48:46;97738.04;;;23.25;32.06
69689;BME280;56932;38.402;-96.176;2022-09-01T04:51:12;97738.74;;;22.93;32.00
69689;BME280;56932;38.402;-96.176;2022-09-01T04:53:37;97738.47;;;23.58;31.87
69689;BME280;56932;38.402;-96.176;2022-09-01T04:56:03;97737.79;;;23.16;32.17
69689;BME280;56932;38.402;-96.176;2022-09-01T04:58:27;97739.27;;;23.88;31.70
69689;BME280;56932;38.402;-96.176;2022-09-01T05:00:53;97734.65;;;23.10;32.43
69689;BME280;56932;38.402;-96.176;2022-09-01T05:03:19;97736.37;;;23.77;31.71
69689;BME280;56932;38.402;-96.176;2022-09-01T05:05:45;97734.72;;;23.52;32.31
69689;BME280;56932;38.402;-96.176;2022-09-01T05:08:11;97732.62;;;23.22;32.81
69689;BME280;56932;38.402;-96.176;2022-09-01T05:10:39;97735.47;;;23.79;32.20
69689;BME280;56932;38.402;-96.176;2022-09-01T05:13:00;97731.76;;;23.03;32.56
69689;BME280;56932;38.402;-96.176;2022-09-01T05:15:26;97729.94;;;23.48;32.75
69689;BME280;56932;38.402;-96.176;2022-09-01T05:17:51;97725.45;;;23.05;33.06
69689;BME280;56932;38.402;-96.176;2022-09-01T05:20:17;97727.59;;;23.54;32.49
69689;BME280;56932;38.402;-96.176;2022-09-01T05:22:42;97722.61;;;23.40;33.00
69689;BME280;56932;38.402;-96.176;2022-09-01T05:25:08;97721.50;;;23.50;32.90
69689;BME280;56932;38.402;-96.176;2022-09-01T05:27:33;97716.45;;;23.23;33.07
69689;BME280;56932;38.402;-96.176;2022-09-01T05:29:59;97715.51;;;23.97;32.50
69689;BME280;56932;38.402;-96.176;2022-09-01T05:32:24;97709.04;;;23.59;32.73
69689;BME280;56932;38.402;-96.176;2022-09-01T05:34:49;97707.91;;;23.97;32.34
69689;BME280;56932;38.402;-96.176;2022-09-01T05:37:15;97706.87;;;23.62;32.80
69689;BME280;56932;38.402;-96.176;2022-09-01T05:39:40;97705.24;;;23.80;32.89
69689;BME280;56932;38.402;-96.176;2022-09-01T05:42:06;97703.36;;;23.32;32.98
69689;BME280;56932;38.402;-96.176;2022-09-01T05:44:31;97700.80;;;23.44;33.48
69689;BME280;56932;38.402;-96.176;2022-09-01T05:46:58;97700.83;;;23.17;33.60
69689;BME280;56932;38.402;-96.176;2022-09-01T05:49:22;97698.93;;;23.32;33.48
69689;BME280;56932;38.402;-96.176;2022-09-01T05:51:49;97697.44;;;23.66;33.37
69689;BME280;56932;38.402;-96.176;2022-09-01T05:54:13;97695.52;;;23.62;33.20
69689;BME280;56932;38.402;-96.176;2022-09-01T05:56:39;97697.66;;;23.85;33.23
69689;BME280;56932;38.402;-96.176;2022-09-01T05:59:04;97696.94;;;23.73;32.83
69689;BME280;56932;38.402;-96.176;2022-09-01T06:01:29;97696.04;;;23.80;33.39
69689;BME280;56932;38.402;-96.176;2022-09-01T06:03:56;97692.24;;;24.00;32.89
69689;BME280;56932;38.402;-96.176;2022-09-01T06:06:21;97693.53;;;23.76;33.52
69689;BME280;56932;38.402;-96.176;2022-09-01T06:08:46;97691.57;;;23.40;33.41
69689;BME280;56932;38.402;-96.176;2022-09-01T06:11:11;97693.65;;;24.02;33.31
69689;BME280;56932;38.402;-96.176;2022-09-01T06:13:37;97690.50;;;23.48;33.72
69689;BME280;56932;38.402;-96.176;2022-09-01T06:16:02;97692.27;;;23.24;33.54
69689;BME280;56932;38.402;-96.176;2022-09-01T06:18:27;97689.55;;;23.77;33.62
69689;BME280;56932;38.402;-96.176;2022-09-01T06:20:53;97682.27;;;24.29;33.03
69689;BME280;56932;38.402;-96.176;2022-09-01T06:23:18;97678.36;;;23.70;33.77
69689;BME280;56932;38.402;-96.176;2022-09-01T06:25:46;97675.71;;;23.80;33.70
69689;BME280;56932;38.402;-96.176;2022-09-01T06:28:09;97680.53;;;23.82;33.69
69689;BME280;56932;38.402;-96.176;2022-09-01T06:30:35;97681.15;;;23.57;34.05
69689;BME280;56932;38.402;-96.176;2022-09-01T06:33:01;97685.39;;;23.62;34.04
69689;BME280;56932;38.402;-96.176;2022-09-01T06:35:26;97684.99;;;24.29;33.23
69689;BME280;56932;38.402;-96.176;2022-09-01T06:37:51;97686.73;;;24.22;32.98
69689;BME280;56932;38.402;-96.176;2022-09-01T06:40:17;97687.17;;;23.80;34.18
69689;BME280;56932;38.402;-96.176;2022-09-01T06:42:43;97685.12;;;23.82;34.19
69689;BME280;56932;38.402;-96.176;2022-09-01T06:45:09;97679.56;;;23.65;34.18
69689;BME280;56932;38.402;-96.176;2022-09-01T06:47:33;97675.63;;;23.39;34.16
69689;BME280;56932;38.402;-96.176;2022-09-01T06:49:59;97668.11;;;24.00;33.81
69689;BME280;56932;38.402;-96.176;2022-09-01T06:52:24;97666.57;;;24.05;33.75
69689;BME280;56932;38.402;-96.176;2022-09-01T06:54:50;97668.38;;;23.66;34.61
69689;BME280;56932;38.402;-96.176;2022-09-01T06:57:15;97672.03;;;23.70;34.57
69689;BME280;56932;38.402;-96.176;2022-09-01T06:59:40;97670.05;;;23.85;34.16
69689;BME280;56932;38.402;-96.176;2022-09-01T07:02:06;97660.82;;;23.80;33.82
69689;BME280;56932;38.402;-96.176;2022-09-01T07:04:31;97652.65;;;23.60;34.75
69689;BME280;56932;38.402;-96.176;2022-09-01T07:06:57;97647.62;;;23.72;34.68
69689;BME280;56932;38.402;-96.176;2022-09-01T07:09:23;97647.21;;;24.64;33.29
69689;BME280;56932;38.402;-96.176;2022-09-01T07:11:48;97659.43;;;23.79;34.60
69689;BME280;56932;38.402;-96.176;2022-09-01T07:14:13;97666.55;;;23.79;34.38
69689;BME280;56932;38.402;-96.176;2022-09-01T07:16:39;97671.52;;;23.84;34.31
69689;BME280;56932;38.402;-96.176;2022-09-01T07:19:05;97675.57;;;24.03;33.77
69689;BME280;56932;38.402;-96.176;2022-09-01T07:21:30;97684.53;;;23.68;34.21
69689;BME280;56932;38.402;-96.176;2022-09-01T07:23:55;97692.27;;;24.04;34.44
69689;BME280;56932;38.402;-96.176;2022-09-01T07:26:21;97693.92;;;23.68;34.90
69689;BME280;56932;38.402;-96.176;2022-09-01T07:28:47;97697.87;;;24.23;34.21
69689;BME280;56932;38.402;-96.176;2022-09-01T07:31:17;97707.67;;;23.72;34.28
69689;BME280;56932;38.402;-96.176;2022-09-01T07:33:37;97706.91;;;23.87;34.72
69689;BME280;56932;38.402;-96.176;2022-09-01T07:36:02;97708.45;;;23.94;34.02
69689;BME280;56932;38.402;-96.176;2022-09-01T07:38:28;97705.56;;;24.14;33.77
69689;BME280;56932;38.402;-96.176;2022-09-01T07:40:53;97706.53;;;24.41;33.82
69689;BME280;56932;38.402;-96.176;2022-09-01T07:43:20;97705.18;;;23.89;34.81
69689;BME280;56932;38.402;-96.176;2022-09-01T07:45:45;97700.79;;;23.69;35.10
69689;BME280;56932;38.402;-96.176;2022-09-01T07:48:10;97698.10;;;23.77;34.75
69689;BME280;56932;38.402;-96.176;2022-09-01T07:50:39;97699.01;;;23.98;34.50
69689;BME280;56932;38.402;-96.176;2022-09-01T07:53:01;97699.59;;;23.67;34.53
69689;BME280;56932;38.402;-96.176;2022-09-01T07:55:26;97699.61;;;24.09;34.37
69689;BME280;56932;38.402;-96.176;2022-09-01T07:57:51;97696.32;;;24.06;34.09
69689;BME280;56932;38.402;-96.176;2022-09-01T08:00:17;97697.92;;;24.07;34.47
69689;BME280;56932;38.402;-96.176;2022-09-01T08:02:42;97697.86;;;24.08;34.14
69689;BME280;56932;38.402;-96.176;2022-09-01T08:05:09;97700.17;;;23.77;34.93
69689;BME280;56932;38.402;-96.176;2022-09-01T08:07:33;97699.65;;;23.69;35.04
69689;BME280;56932;38.402;-96.176;2022-09-01T08:09:59;97702.15;;;23.57;35.24
69689;BME280;56932;38.402;-96.176;2022-09-01T08:12:24;97704.25;;;23.38;35.54
69689;BME280;56932;38.402;-96.176;2022-09-01T08:14:50;97702.71;;;23.78;35.32
69689;BME280;56932;38.402;-96.176;2022-09-01T08:17:15;97704.71;;;23.92;35.14
69689;BME280;56932;38.402;-96.176;2022-09-01T08:19:41;97711.47;;;23.53;35.03
69689;BME280;56932;38.402;-96.176;2022-09-01T08:22:06;97711.33;;;23.89;35.25
69689;BME280;56932;38.402;-96.176;2022-09-01T08:24:31;97711.37;;;23.80;34.73
69689;BME280;56932;38.402;-96.176;2022-09-01T08:26:57;97710.34;;;23.64;35.24
69689;BME280;56932;38.402;-96.176;2022-09-01T08:29:23;97712.94;;;23.66;34.91
69689;BME280;56932;38.402;-96.176;2022-09-01T08:31:48;97719.30;;;23.31;35.37
69689;BME280;56932;38.402;-96.176;2022-09-01T08:34:13;97725.46;;;23.18;35.59
69689;BME280;56932;38.402;-96.176;2022-09-01T08:36:39;97731.77;;;23.63;35.04
69689;BME280;56932;38.402;-96.176;2022-09-01T08:39:04;97736.51;;;23.49;35.22
69689;BME280;56932;38.402;-96.176;2022-09-01T08:41:40;97739.76;;;23.93;35.05
69689;BME280;56932;38.402;-96.176;2022-09-01T08:44:02;97734.29;;;23.54;35.20
69689;BME280;56932;38.402;-96.176;2022-09-01T08:46:25;97730.55;;;23.76;35.58
69689;BME280;56932;38.402;-96.176;2022-09-01T08:48:50;97729.22;;;23.71;35.70
69689;BME280;56932;38.402;-96.176;2022-09-01T08:51:17;97730.46;;;23.57;35.21
69689;BME280;56932;38.402;-96.176;2022-09-01T08:53:44;97729.83;;;23.73;35.36
69689;BME280;56932;38.402;-96.176;2022-09-01T08:56:04;97726.80;;;23.47;35.75
69689;BME280;56932;38.402;-96.176;2022-09-01T08:58:29;97724.63;;;24.15;34.81
69689;BME280;56932;38.402;-96.176;2022-09-01T09:00:55;97721.76;;;24.09;34.94
69689;BME280;56932;38.402;-96.176;2022-09-01T09:03:26;97720.26;;;23.72;35.43
69689;BME280;56932;38.402;-96.176;2022-09-01T09:06:00;97723.02;;;23.93;35.15
69689;BME280;56932;38.402;-96.176;2022-09-01T09:08:18;97724.44;;;24.10;34.99
69689;BME280;56932;38.402;-96.176;2022-09-01T09:10:42;97724.64;;;24.00;34.75
69689;BME280;56932;38.402;-96.176;2022-09-01T09:13:09;97725.09;;;23.66;34.92
69689;BME280;56932;38.402;-96.176;2022-09-01T09:15:30;97719.20;;;23.85;35.32
69689;BME280;56932;38.402;-96.176;2022-09-01T09:17:57;97711.02;;;24.38;34.64
69689;BME280;56932;38.402;-96.176;2022-09-01T09:20:17;97717.51;;;23.70;35.20
69689;BME280;56932;38.402;-96.176;2022-09-01T09:22:44;97720.75;;;23.71;35.51
69689;BME280;56932;38.402;-96.176;2022-09-01T09:25:10;97726.42;;;23.50;35.50
69689;BME280;56932;38.402;-96.176;2022-09-01T09:27:35;97726.60;;;23.81;35.41
69689;BME280;56932;38.402;-96.176;2022-09-01T09:30:02;97729.82;;;24.04;35.16
69689;BME280;56932;38.402;-96.176;2022-09-01T09:34:50;97735.89;;;23.70;35.28
69689;BME280;56932;38.402;-96.176;2022-09-01T09:37:20;97735.55;;;24.18;34.68
69689;BME280;56932;38.402;-96.176;2022-09-01T09:39:40;97731.30;;;23.83;35.47
69689;BME280;56932;38.402;-96.176;2022-09-01T09:42:10;97734.01;;;23.42;35.10
69689;BME280;56932;38.402;-96.176;2022-09-01T09:44:32;97741.11;;;23.90;35.72
69689;BME280;56932;38.402;-96.176;2022-09-01T09:46:57;97743.68;;;23.32;35.83
69689;BME280;56932;38.402;-96.176;2022-09-01T09:49:24;97740.03;;;23.70;35.78
69689;BME280;56932;38.402;-96.176;2022-09-01T09:51:49;97740.06;;;23.46;36.10
69689;BME280;56932;38.402;-96.176;2022-09-01T09:54:17;97742.86;;;23.61;36.24
69689;BME280;56932;38.402;-96.176;2022-09-01T09:56:39;97742.60;;;23.97;35.43
69689;BME280;56932;38.402;-96.176;2022-09-01T10:01:30;97744.50;;;23.55;36.02
69689;BME280;56932;38.402;-96.176;2022-09-01T10:03:57;97748.71;;;23.87;35.61
69689;BME280;56932;38.402;-96.176;2022-09-01T10:06:30;97745.95;;;23.77;35.73
69689;BME280;56932;38.402;-96.176;2022-09-01T10:08:46;97744.54;;;23.87;35.64
69689;BME280;56932;38.402;-96.176;2022-09-01T10:13:37;97743.02;;;23.72;35.83
69689;BME280;56932;38.402;-96.176;2022-09-01T10:16:07;97742.14;;;23.18;35.64
69689;BME280;56932;38.402;-96.176;2022-09-01T10:18:31;97742.05;;;23.86;35.96
69689;BME280;56932;38.402;-96.176;2022-09-01T10:20:56;97739.18;;;23.86;35.76
69689;BME280;56932;38.402;-96.176;2022-09-01T10:23:19;97733.80;;;23.64;35.65
69689;BME280;56932;38.402;-96.176;2022-09-01T10:25:45;97727.57;;;23.55;36.13
69689;BME280;56932;38.402;-96.176;2022-09-01T10:28:13;97725.32;;;23.66;36.00
69689;BME280;56932;38.402;-96.176;2022-09-01T10:30:37;97720.73;;;23.83;36.12
69689;BME280;56932;38.402;-96.176;2022-09-01T10:33:01;97718.64;;;23.60;36.12
69689;BME280;56932;38.402;-96.176;2022-09-01T10:35:29;97722.05;;;24.03;35.86
69689;BME280;56932;38.402;-96.176;2022-09-01T10:37:53;97723.95;;;24.06;35.48
69689;BME280;56932;38.402;-96.176;2022-09-01T10:42:45;97722.65;;;24.08;35.45
69689;BME280;56932;38.402;-96.176;2022-09-01T10:45:18;97722.34;;;23.86;35.41
69689;BME280;56932;38.402;-96.176;2022-09-01T10:47:34;97717.75;;;23.99;35.94
69689;BME280;56932;38.402;-96.176;2022-09-01T10:50:02;97719.67;;;23.82;35.53
69689;BME280;56932;38.402;-96.176;2022-09-01T10:54:53;97728.04;;;23.59;36.25
69689;BME280;56932;38.402;-96.176;2022-09-01T10:57:29;97728.67;;;23.62;36.23
69689;BME280;56932;38.402;-96.176;2022-09-01T10:59:41;97732.56;;;24.18;35.74
69689;BME280;56932;38.402;-96.176;2022-09-01T11:02:12;97734.99;;;23.99;35.78
69689;BME280;56932;38.402;-96.176;2022-09-01T11:06:59;97738.71;;;23.72;36.48
69689;BME280;56932;38.402;-96.176;2022-09-01T11:09:25;97741.57;;;23.96;36.19
69689;BME280;56932;38.402;-96.176;2022-09-01T11:14:18;97746.79;;;23.24;36.22
69689;BME280;56932;38.402;-96.176;2022-09-01T11:16:40;97746.54;;;23.92;35.68
69689;BME280;56932;38.402;-96.176;2022-09-01T11:21:30;97744.23;;;23.80;36.20
69689;BME280;56932;38.402;-96.176;2022-09-01T11:28:46;97740.93;;;23.88;35.79
69689;BME280;56932;38.402;-96.176;2022-09-01T11:33:45;97742.29;;;23.56;36.85
69689;BME280;56932;38.402;-96.176;2022-09-01T11:36:06;97741.72;;;23.31;36.90
69689;BME280;56932;38.402;-96.176;2022-09-01T11:38:31;97744.10;;;23.84;36.50
69689;BME280;56932;38.402;-96.176;2022-09-01T11:40:55;97741.73;;;23.77;36.52
69689;BME280;56932;38.402;-96.176;2022-09-01T11:43:19;97740.97;;;23.53;36.20
69689;BME280;56932;38.402;-96.176;2022-09-01T11:45:52;97734.69;;;24.11;35.37
69689;BME280;56932;38.402;-96.176;2022-09-01T11:48:11;97733.09;;;24.34;34.77
69689;BME280;56932;38.402;-96.176;2022-09-01T11:50:36;97736.45;;;23.94;35.88
69689;BME280;56932;38.402;-96.176;2022-09-01T11:53:04;97738.85;;;23.42;35.98
69689;BME280;56932;38.402;-96.176;2022-09-01T11:55:29;97743.18;;;23.86;35.70
69689;BME280;56932;38.402;-96.176;2022-09-01T11:57:51;97750.21;;;23.78;36.16
69689;BME280;56932;38.402;-96.176;2022-09-01T12:00:24;97749.40;;;23.65;35.99
69689;BME280;56932;38.402;-96.176;2022-09-01T12:02:45;97749.00;;;23.97;36.22
69689;BME280;56932;38.402;-96.176;2022-09-01T12:07:39;97747.51;;;23.83;35.70
69689;BME280;56932;38.402;-96.176;2022-09-01T12:09:59;97749.65;;;23.84;36.02
69689;BME280;56932;38.402;-96.176;2022-09-01T12:12:29;97749.08;;;23.86;35.63
69689;BME280;56932;38.402;-96.176;2022-09-01T12:14:55;97750.71;;;24.25;35.41
69689;BME280;56932;38.402;-96.176;2022-09-01T12:17:19;97750.84;;;24.09;35.63
69689;BME280;56932;38.402;-96.176;2022-09-01T12:19:40;97747.82;;;24.07;35.30
69689;BME280;56932;38.402;-96.176;2022-09-01T12:22:12;97749.34;;;24.01;35.33
69689;BME280;56932;38.402;-96.176;2022-09-01T12:24:34;97749.41;;;24.22;35.39
69689;BME280;56932;38.402;-96.176;2022-09-01T12:26:57;97748.33;;;24.39;35.25
69689;BME280;56932;38.402;-96.176;2022-09-01T12:29:22;97750.47;;;24.07;35.34
69689;BME280;56932;38.402;-96.176;2022-09-01T12:31:49;97747.56;;;24.27;35.07
69689;BME280;56932;38.402;-96.176;2022-09-01T12:36:38;97745.30;;;24.32;35.32
69689;BME280;56932;38.402;-96.176;2022-09-01T12:41:34;97743.99;;;24.58;34.74
69689;BME280;56932;38.402;-96.176;2022-09-01T12:43:55;97744.23;;;24.24;35.50
69689;BME280;56932;38.402;-96.176;2022-09-01T12:48:46;97743.37;;;24.11;35.66
69689;BME280;56932;38.402;-96.176;2022-09-01T12:51:18;97740.51;;;24.39;34.89
69689;BME280;56932;38.402;-96.176;2022-09-01T12:53:37;97740.15;;;24.21;35.15
69689;BME280;56932;38.402;-96.176;2022-09-01T12:58:28;97737.11;;;24.40;34.83
69689;BME280;56932;38.402;-96.176;2022-09-01T13:00:56;97730.84;;;24.36;34.88
69689;BME280;56932;38.402;-96.176;2022-09-01T13:03:18;97728.14;;;24.65;35.13
69689;BME280;56932;38.402;-96.176;2022-09-01T13:05:45;97725.06;;;24.34;34.89
69689;BME280;56932;38.402;-96.176;2022-09-01T13:08:12;97725.25;;;24.29;34.95